Eko 5 — SVAR7 — position and weather

sailwx.info

Track history (hours):
 
Tides and Currents Weather Stations Pressure Air Temp Water Temp Dewpoint Dewpoint Depression Visibility Wind Speed Wind Dir Waves Ship Positions

Eko 5

Last reported at 2017-Sep-22 02:00 UTC. Time now 2017-Sep-24 17:34 UTC.
Position N 38°01' E 023°32'.

Length 88 m; draft 4.9 m.

Type: Ship. MMSI: 240911000.

Date/timePositionNaut miles runAvg speedWind from/ knotsBaromVisibWave heightAir tempDewpointWater temp
2017-Sep-22 02:00N 38°01' E 023°32'0 0.1
2017-Sep-22 01:30N 38°01' E 023°32'0 0.0
2017-Sep-22 01:00N 38°01' E 023°32'0 0.0
2017-Sep-22 00:30N 38°01' E 023°32'0 0.0
2017-Sep-22 00:00N 38°01' E 023°32'0 0.1
2017-Sep-21 23:30N 38°01' E 023°32'0 0.1
2017-Sep-21 23:00N 38°01' E 023°33'0 0.0
2017-Sep-21 22:30N 38°01' E 023°33'0 0.0
2017-Sep-21 22:00N 38°01' E 023°33'0 0.0
2017-Sep-21 21:30N 38°01' E 023°33'0 0.0
2017-Sep-21 21:00N 38°01' E 023°33'0 0.0
2017-Sep-21 20:30N 38°01' E 023°33'0 0.0
2017-Sep-21 20:00N 38°01' E 023°33'0 0.0
2017-Sep-21 19:30N 38°01' E 023°33'0 0.0
2017-Sep-21 19:00N 38°01' E 023°33'0 0.0
2017-Sep-21 18:30N 38°01' E 023°33'0 0.0
2017-Sep-21 18:00N 38°01' E 023°33'0 0.0
2017-Sep-21 17:30N 38°01' E 023°33'0 0.0
2017-Sep-21 17:00N 38°01' E 023°33'0 0.0
2017-Sep-21 16:30N 38°01' E 023°33'0 0.0
2017-Sep-21 16:00N 38°01' E 023°33'0 0.0
2017-Sep-21 15:30N 38°01' E 023°33'0 0.0
2017-Sep-21 15:00N 38°01' E 023°33'0 0.0
2017-Sep-21 14:30N 38°01' E 023°33'0 0.0
2017-Sep-21 14:00N 38°01' E 023°33'0 0.1
2017-Sep-21 13:30N 38°01' E 023°33'0 0.0
2017-Sep-21 13:00N 38°01' E 023°33'0 0.0
2017-Sep-21 12:30N 38°01' E 023°33'0 0.0
2017-Sep-21 12:00N 38°01' E 023°33'0 0.1
2017-Sep-21 11:30N 38°01' E 023°33'0 0.0
2017-Sep-21 11:00N 38°01' E 023°33'0 0.7
2017-Sep-21 10:30N 38°01' E 023°33'0 0.3
2017-Sep-21 10:00N 38°01' E 023°33'0 0.0
2017-Sep-21 09:30N 38°01' E 023°33'1 1.4
2017-Sep-21 09:00N 38°01' E 023°33'4 7.5
2017-Sep-21 08:30N 37°57' E 023°35'2 5.0
2017-Sep-21 08:01N 37°55' E 023°36'1 1.6
2017-Sep-21 07:30N 37°55' E 023°35'1 2.8
2017-Sep-21 06:59N 37°55' E 023°33'0 0.1
2017-Sep-21 06:29N 37°55' E 023°33'0 0.0
2017-Sep-21 05:59N 37°55' E 023°33'0 0.0
2017-Sep-21 05:29N 37°55' E 023°33'0 0.0
2017-Sep-21 04:59N 37°55' E 023°33'0 0.0
2017-Sep-21 04:29N 37°55' E 023°33'0 0.1
2017-Sep-21 03:59N 37°55' E 023°33'0 0.1
2017-Sep-21 03:29N 37°55' E 023°33'0 0.0
2017-Sep-21 02:59N 37°55' E 023°33'0 0.0
2017-Sep-21 02:29N 37°55' E 023°33'0 0.0
2017-Sep-21 01:56N 37°55' E 023°33'0 0.0
2017-Sep-21 01:29N 37°55' E 023°33'0 0.0
2017-Sep-21 00:59N 37°55' E 023°33'0 0.0
2017-Sep-21 00:29N 37°55' E 023°33'0 0.0
2017-Sep-20 23:59N 37°55' E 023°33'0 0.0
2017-Sep-20 23:29N 37°55' E 023°33'0 0.0
2017-Sep-20 22:59N 37°55' E 023°33'0 0.1
2017-Sep-20 22:29N 37°55' E 023°33'0 0.1
2017-Sep-20 21:59N 37°55' E 023°33'0 0.0
2017-Sep-20 21:29N 37°55' E 023°33'0 0.0
2017-Sep-20 20:59N 37°55' E 023°33'0 0.1
2017-Sep-20 20:30N 37°55' E 023°33'1 2.4
2017-Sep-20 20:00N 37°54' E 023°34'3 6.9
2017-Sep-20 19:30N 37°52' E 023°37'4 8.4
2017-Sep-20 19:00N 37°49' E 023°40'4 8.6
2017-Sep-20 18:30N 37°45' E 023°42'4 8.6
2017-Sep-20 18:00N 37°41' E 023°45'4 8.6
2017-Sep-20 17:30N 37°38' E 023°49'5 9.2
2017-Sep-20 17:00N 37°34' E 023°51'5 9.9
2017-Sep-20 16:30N 37°29' E 023°53'3 6.7
2017-Sep-20 16:00N 37°27' E 023°56'55 7.5
2017-Sep-20 08:45N 36°57' E 024°53'2 9.2
2017-Sep-20 08:30N 36°56' E 024°55'  
2017-Sep-17 11:19N 37°10' E 025°48'3 9.5
2017-Sep-17 11:01N 37°11' E 025°44'5 9.6
2017-Sep-17 10:30N 37°12' E 025°39'7 9.6
2017-Sep-17 09:48N 37°13' E 025°30'3 9.3
2017-Sep-17 09:30N 37°14' E 025°27'5 9.1
2017-Sep-17 09:00N 37°15' E 025°21'4 8.9
2017-Sep-17 08:30N 37°16' E 025°16'5 9.1
2017-Sep-17 08:00N 37°17' E 025°10'5 9.2
2017-Sep-17 07:30N 37°18' E 025°04'4 9.1
2017-Sep-17 07:00N 37°19' E 024°59'5 9.4
2017-Sep-17 06:30N 37°20' E 024°53'5 9.6
2017-Sep-17 06:00N 37°22' E 024°48'47 9.7
2017-Sep-17 01:12N 37°36' E 023°52'3 9.9
2017-Sep-17 00:57N 37°37' E 023°49'4 9.8
2017-Sep-17 00:30N 37°39' E 023°44'5 9.6
2017-Sep-17 00:00N 37°43' E 023°41'5 9.9
2017-Sep-16 23:30N 37°47' E 023°38'4 8.6
2017-Sep-16 23:00N 37°50' E 023°33'5 9.5
2017-Sep-16 22:30N 37°50' E 023°27'5 9.5
2017-Sep-16 22:00N 37°51' E 023°21'5 9.6
2017-Sep-16 21:30N 37°52' E 023°15'5 9.9
2017-Sep-16 21:00N 37°53' E 023°09'4 0.9
2017-Sep-16 16:43N 37°55' E 023°05'0 0.0
2017-Sep-16 02:14N 37°55' E 023°05'1 3.9
2017-Sep-16 02:00N 37°54' E 023°06'0 0.7
2017-Sep-16 01:23N 37°55' E 023°07'0 0.0
2017-Sep-16 00:59N 37°55' E 023°07'0 0.0
2017-Sep-16 00:29N 37°55' E 023°07'0 0.0
2017-Sep-15 23:56N 37°55' E 023°07'0 0.0
2017-Sep-15 23:29N 37°55' E 023°07'0 0.0
2017-Sep-15 22:41N 37°55' E 023°07'0 0.1
2017-Sep-15 22:29N 37°55' E 023°07'0 0.0
2017-Sep-15 21:26N 37°55' E 023°07'0 0.0
2017-Sep-15 20:35N 37°55' E 023°07'0 0.0
2017-Sep-15 20:29N 37°55' E 023°07'0 0.0
2017-Sep-15 19:11N 37°55' E 023°07'0 0.0
2017-Sep-15 18:59N 37°55' E 023°07'0 0.0
2017-Sep-15 18:17N 37°55' E 023°07'0 0.0
2017-Sep-15 17:53N 37°55' E 023°07'0 0.0
2017-Sep-15 17:29N 37°55' E 023°07'0 0.1
2017-Sep-15 16:53N 37°55' E 023°07'0 0.1
2017-Sep-15 16:23N 37°55' E 023°07'1 1.7
2017-Sep-15 16:01N 37°54' E 023°07'5 9.5
2017-Sep-15 15:31N 37°53' E 023°13'510.1
2017-Sep-15 15:01N 37°52' E 023°19'5 9.9
2017-Sep-15 14:31N 37°51' E 023°25'5 9.7
2017-Sep-15 14:01N 37°53' E 023°31'3 5.7
2017-Sep-15 13:28N 37°55' E 023°34'0 0.1
2017-Sep-15 12:58N 37°55' E 023°34'0 0.0
2017-Sep-15 12:28N 37°55' E 023°34'0 0.0
2017-Sep-15 11:58N 37°55' E 023°34'0 0.2
2017-Sep-15 11:28N 37°55' E 023°34'2 4.5
2017-Sep-15 11:00N 37°54' E 023°36'5 9.6
2017-Sep-15 10:30N 37°50' E 023°40'5 9.6
2017-Sep-15 10:00N 37°45' E 023°42'5 9.4
2017-Sep-15 09:30N 37°41' E 023°45'5 9.5
2017-Sep-15 09:00N 37°38' E 023°49'5 9.8
2017-Sep-15 08:30N 37°35' E 023°54'  
2017-Sep-12 16:56N 37°11' E 025°49'4 8.7
2017-Sep-12 16:30N 37°12' E 025°44'5 8.8
2017-Sep-12 16:00N 37°13' E 025°39'5 8.9
2017-Sep-12 15:25N 37°14' E 025°32'4 9.4
2017-Sep-12 15:00N 37°15' E 025°28'5 9.6
2017-Sep-12 14:30N 37°16' E 025°22'5 9.7
2017-Sep-12 14:00N 37°17' E 025°16'5 9.7
2017-Sep-12 13:30N 37°17' E 025°10'5 9.7
2017-Sep-12 13:00N 37°18' E 025°04'5 9.7
2017-Sep-12 12:30N 37°19' E 024°58'5 9.7
2017-Sep-12 12:00N 37°20' E 024°52'5 9.8
2017-Sep-12 11:30N 37°23' E 024°47'49 9.6
2017-Sep-12 06:28N 37°37' E 023°48'4 9.5
2017-Sep-12 06:00N 37°39' E 023°43'5 9.8
2017-Sep-12 05:30N 37°43' E 023°40'5 9.9
2017-Sep-12 05:00N 37°48' E 023°37'4 8.7
2017-Sep-12 04:30N 37°50' E 023°32'5 9.9
2017-Sep-12 04:00N 37°51' E 023°26'510.0
2017-Sep-12 03:30N 37°52' E 023°20'5 9.9
2017-Sep-12 03:00N 37°53' E 023°14'5 9.9
2017-Sep-12 02:30N 37°54' E 023°08'  
Track history (hours):
 
Tides and Currents Weather Stations Pressure Air Temp Water Temp Dewpoint Dewpoint Depression Visibility Wind Speed Wind Dir Waves Ship Positions

Eko 5

Last reported at 2017-Sep-22 02:00 UTC. Time now 2017-Sep-24 17:34 UTC.
Position N 38°01' E 023°32'.

Length 88 m; draft 4.9 m.

Type: Ship. MMSI: 240911000.

Date/timePositionNaut miles runAvg speedWind from/ knotsBaromVisibWave heightAir tempDewpointWater temp
2017-Sep-22 02:00N 38°01' E 023°32'0 0.1
2017-Sep-22 01:30N 38°01' E 023°32'0 0.0
2017-Sep-22 01:00N 38°01' E 023°32'0 0.0
2017-Sep-22 00:30N 38°01' E 023°32'0 0.0
2017-Sep-22 00:00N 38°01' E 023°32'0 0.1
2017-Sep-21 23:30N 38°01' E 023°32'0 0.1
2017-Sep-21 23:00N 38°01' E 023°33'0 0.0
2017-Sep-21 22:30N 38°01' E 023°33'0 0.0
2017-Sep-21 22:00N 38°01' E 023°33'0 0.0
2017-Sep-21 21:30N 38°01' E 023°33'0 0.0
2017-Sep-21 21:00N 38°01' E 023°33'0 0.0
2017-Sep-21 20:30N 38°01' E 023°33'0 0.0
2017-Sep-21 20:00N 38°01' E 023°33'0 0.0
2017-Sep-21 19:30N 38°01' E 023°33'0 0.0
2017-Sep-21 19:00N 38°01' E 023°33'0 0.0
2017-Sep-21 18:30N 38°01' E 023°33'0 0.0
2017-Sep-21 18:00N 38°01' E 023°33'0 0.0
2017-Sep-21 17:30N 38°01' E 023°33'0 0.0
2017-Sep-21 17:00N 38°01' E 023°33'0 0.0
2017-Sep-21 16:30N 38°01' E 023°33'0 0.0
2017-Sep-21 16:00N 38°01' E 023°33'0 0.0
2017-Sep-21 15:30N 38°01' E 023°33'0 0.0
2017-Sep-21 15:00N 38°01' E 023°33'0 0.0
2017-Sep-21 14:30N 38°01' E 023°33'0 0.0
2017-Sep-21 14:00N 38°01' E 023°33'0 0.1
2017-Sep-21 13:30N 38°01' E 023°33'0 0.0
2017-Sep-21 13:00N 38°01' E 023°33'0 0.0
2017-Sep-21 12:30N 38°01' E 023°33'0 0.0
2017-Sep-21 12:00N 38°01' E 023°33'0 0.1
2017-Sep-21 11:30N 38°01' E 023°33'0 0.0
2017-Sep-21 11:00N 38°01' E 023°33'0 0.7
2017-Sep-21 10:30N 38°01' E 023°33'0 0.3
2017-Sep-21 10:00N 38°01' E 023°33'0 0.0
2017-Sep-21 09:30N 38°01' E 023°33'1 1.4
2017-Sep-21 09:00N 38°01' E 023°33'4 7.5
2017-Sep-21 08:30N 37°57' E 023°35'2 5.0
2017-Sep-21 08:01N 37°55' E 023°36'1 1.6
2017-Sep-21 07:30N 37°55' E 023°35'1 2.8
2017-Sep-21 06:59N 37°55' E 023°33'0 0.1
2017-Sep-21 06:29N 37°55' E 023°33'0 0.0
2017-Sep-21 05:59N 37°55' E 023°33'0 0.0
2017-Sep-21 05:29N 37°55' E 023°33'0 0.0
2017-Sep-21 04:59N 37°55' E 023°33'0 0.0
2017-Sep-21 04:29N 37°55' E 023°33'0 0.1
2017-Sep-21 03:59N 37°55' E 023°33'0 0.1
2017-Sep-21 03:29N 37°55' E 023°33'0 0.0
2017-Sep-21 02:59N 37°55' E 023°33'0 0.0
2017-Sep-21 02:29N 37°55' E 023°33'0 0.0
2017-Sep-21 01:56N 37°55' E 023°33'0 0.0
2017-Sep-21 01:29N 37°55' E 023°33'0 0.0
2017-Sep-21 00:59N 37°55' E 023°33'0 0.0
2017-Sep-21 00:29N 37°55' E 023°33'0 0.0
2017-Sep-20 23:59N 37°55' E 023°33'0 0.0
2017-Sep-20 23:29N 37°55' E 023°33'0 0.0
2017-Sep-20 22:59N 37°55' E 023°33'0 0.1
2017-Sep-20 22:29N 37°55' E 023°33'0 0.1
2017-Sep-20 21:59N 37°55' E 023°33'0 0.0
2017-Sep-20 21:29N 37°55' E 023°33'0 0.0
2017-Sep-20 20:59N 37°55' E 023°33'0 0.1
2017-Sep-20 20:30N 37°55' E 023°33'1 2.4
2017-Sep-20 20:00N 37°54' E 023°34'3 6.9
2017-Sep-20 19:30N 37°52' E 023°37'4 8.4
2017-Sep-20 19:00N 37°49' E 023°40'4 8.6
2017-Sep-20 18:30N 37°45' E 023°42'4 8.6
2017-Sep-20 18:00N 37°41' E 023°45'4 8.6
2017-Sep-20 17:30N 37°38' E 023°49'5 9.2
2017-Sep-20 17:00N 37°34' E 023°51'5 9.9
2017-Sep-20 16:30N 37°29' E 023°53'3 6.7
2017-Sep-20 16:00N 37°27' E 023°56'55 7.5
2017-Sep-20 08:45N 36°57' E 024°53'2 9.2
2017-Sep-20 08:30N 36°56' E 024°55'  
2017-Sep-17 11:19N 37°10' E 025°48'3 9.5
2017-Sep-17 11:01N 37°11' E 025°44'5 9.6
2017-Sep-17 10:30N 37°12' E 025°39'7 9.6
2017-Sep-17 09:48N 37°13' E 025°30'3 9.3
2017-Sep-17 09:30N 37°14' E 025°27'5 9.1
2017-Sep-17 09:00N 37°15' E 025°21'4 8.9
2017-Sep-17 08:30N 37°16' E 025°16'5 9.1
2017-Sep-17 08:00N 37°17' E 025°10'5 9.2
2017-Sep-17 07:30N 37°18' E 025°04'4 9.1
2017-Sep-17 07:00N 37°19' E 024°59'5 9.4
2017-Sep-17 06:30N 37°20' E 024°53'5 9.6
2017-Sep-17 06:00N 37°22' E 024°48'47 9.7
2017-Sep-17 01:12N 37°36' E 023°52'3 9.9
2017-Sep-17 00:57N 37°37' E 023°49'4 9.8
2017-Sep-17 00:30N 37°39' E 023°44'5 9.6
2017-Sep-17 00:00N 37°43' E 023°41'5 9.9
2017-Sep-16 23:30N 37°47' E 023°38'4 8.6
2017-Sep-16 23:00N 37°50' E 023°33'5 9.5
2017-Sep-16 22:30N 37°50' E 023°27'5 9.5
2017-Sep-16 22:00N 37°51' E 023°21'5 9.6
2017-Sep-16 21:30N 37°52' E 023°15'5 9.9
2017-Sep-16 21:00N 37°53' E 023°09'4 0.9
2017-Sep-16 16:43N 37°55' E 023°05'0 0.0
2017-Sep-16 02:14N 37°55' E 023°05'1 3.9
2017-Sep-16 02:00N 37°54' E 023°06'0 0.7
2017-Sep-16 01:23N 37°55' E 023°07'0 0.0
2017-Sep-16 00:59N 37°55' E 023°07'0 0.0
2017-Sep-16 00:29N 37°55' E 023°07'0 0.0
2017-Sep-15 23:56N 37°55' E 023°07'0 0.0
2017-Sep-15 23:29N 37°55' E 023°07'0 0.0
2017-Sep-15 22:41N 37°55' E 023°07'0 0.1
2017-Sep-15 22:29N 37°55' E 023°07'0 0.0
2017-Sep-15 21:26N 37°55' E 023°07'0 0.0
2017-Sep-15 20:35N 37°55' E 023°07'0 0.0
2017-Sep-15 20:29N 37°55' E 023°07'0 0.0
2017-Sep-15 19:11N 37°55' E 023°07'0 0.0
2017-Sep-15 18:59N 37°55' E 023°07'0 0.0
2017-Sep-15 18:17N 37°55' E 023°07'0 0.0
2017-Sep-15 17:53N 37°55' E 023°07'0 0.0
2017-Sep-15 17:29N 37°55' E 023°07'0 0.1
2017-Sep-15 16:53N 37°55' E 023°07'0 0.1
2017-Sep-15 16:23N 37°55' E 023°07'1 1.7
2017-Sep-15 16:01N 37°54' E 023°07'5 9.5
2017-Sep-15 15:31N 37°53' E 023°13'510.1
2017-Sep-15 15:01N 37°52' E 023°19'5 9.9
2017-Sep-15 14:31N 37°51' E 023°25'5 9.7
2017-Sep-15 14:01N 37°53' E 023°31'3 5.7
2017-Sep-15 13:28N 37°55' E 023°34'0 0.1
2017-Sep-15 12:58N 37°55' E 023°34'0 0.0
2017-Sep-15 12:28N 37°55' E 023°34'0 0.0
2017-Sep-15 11:58N 37°55' E 023°34'0 0.2
2017-Sep-15 11:28N 37°55' E 023°34'2 4.5
2017-Sep-15 11:00N 37°54' E 023°36'5 9.6
2017-Sep-15 10:30N 37°50' E 023°40'5 9.6
2017-Sep-15 10:00N 37°45' E 023°42'5 9.4
2017-Sep-15 09:30N 37°41' E 023°45'5 9.5
2017-Sep-15 09:00N 37°38' E 023°49'5 9.8
2017-Sep-15 08:30N 37°35' E 023°54'  
2017-Sep-12 16:56N 37°11' E 025°49'4 8.7
2017-Sep-12 16:30N 37°12' E 025°44'5 8.8
2017-Sep-12 16:00N 37°13' E 025°39'5 8.9
2017-Sep-12 15:25N 37°14' E 025°32'4 9.4
2017-Sep-12 15:00N 37°15' E 025°28'5 9.6
2017-Sep-12 14:30N 37°16' E 025°22'5 9.7
2017-Sep-12 14:00N 37°17' E 025°16'5 9.7
2017-Sep-12 13:30N 37°17' E 025°10'5 9.7
2017-Sep-12 13:00N 37°18' E 025°04'5 9.7
2017-Sep-12 12:30N 37°19' E 024°58'5 9.7
2017-Sep-12 12:00N 37°20' E 024°52'5 9.8
2017-Sep-12 11:30N 37°23' E 024°47'49 9.6
2017-Sep-12 06:28N 37°37' E 023°48'4 9.5
2017-Sep-12 06:00N 37°39' E 023°43'5 9.8
2017-Sep-12 05:30N 37°43' E 023°40'5 9.9
2017-Sep-12 05:00N 37°48' E 023°37'4 8.7
2017-Sep-12 04:30N 37°50' E 023°32'5 9.9
2017-Sep-12 04:00N 37°51' E 023°26'510.0
2017-Sep-12 03:30N 37°52' E 023°20'5 9.9
2017-Sep-12 03:00N 37°53' E 023°14'5 9.9
2017-Sep-12 02:30N 37°54' E 023°08'  

Dump ship's entire track history